Time;durP1;ratioP1;P1;durP2;ratioP2;P2;SDS_P1;SDS_P2;PMS_P1;PMS_P2;Temp;Humidity;BMP_temperature;BMP_pressure;BME280_temperature;BME280_humidity;BME280_pressure;Samples;Min_cycle;Max_cycle;Signal;HPM_P1;HPM_P2
2022/08/07 00:00:25;;;;;;;5.40;2.40;;;;;;;15.57;91.01;97400.99;108488;1268;22550;-75
2022/08/07 00:03:11;;;;;;;5.20;3.20;;;;;;;15.63;90.86;97401.31;108557;1267;22777;-75
2022/08/07 00:05:42;;;;;;;7.80;3.20;;;;;;;15.55;90.58;97400.71;108308;1268;31594;-75
2022/08/07 00:08:13;;;;;;;3.80;3.00;;;;;;;15.41;90.50;97391.66;108416;1268;25252;-75
2022/08/07 00:10:44;;;;;;;4.50;3.10;;;;;;;15.31;90.70;97393.83;108504;1266;22611;-75
2022/08/07 00:13:16;;;;;;;5.30;3.00;;;;;;;15.24;91.05;97393.41;108528;1268;22557;-75
2022/08/07 00:15:48;;;;;;;5.90;3.20;;;;;;;15.22;91.19;97390.13;108338;1268;37116;-75
2022/08/07 00:18:22;;;;;;;4.60;2.50;;;;;;;15.24;91.41;97388.23;108513;1268;22562;-75
2022/08/07 00:20:54;;;;;;;3.60;2.30;;;;;;;15.25;91.37;97389.65;108424;1268;24224;-75
2022/08/07 00:23:25;;;;;;;5.30;2.30;;;;;;;15.25;91.55;97388.80;108384;1268;22549;-75
2022/08/07 00:25:56;;;;;;;4.90;2.60;;;;;;;15.22;91.64;97391.73;108322;1268;39394;-76
2022/08/07 00:28:31;;;;;;;3.30;2.70;;;;;;;15.21;91.91;97398.23;108449;1268;22573;-75
2022/08/07 00:31:05;;;;;;;3.60;2.50;;;;;;;15.22;92.01;97398.98;108507;1268;23730;-75
2022/08/07 00:33:38;;;;;;;6.00;2.50;;;;;;;15.29;92.25;97399.10;108468;1268;22556;-75
2022/08/07 00:36:09;;;;;;;4.60;2.50;;;;;;;15.36;92.32;97404.41;108439;1268;29823;-75
2022/08/07 00:38:41;;;;;;;6.30;2.90;;;;;;;15.39;92.14;97402.05;108421;1268;23883;-75
2022/08/07 00:41:12;;;;;;;3.70;2.60;;;;;;;15.43;92.18;97402.64;108424;1268;22571;-75
2022/08/07 00:43:45;;;;;;;9.20;2.60;;;;;;;15.51;92.21;97406.23;108527;1268;22633;-75
2022/08/07 00:46:16;;;;;;;3.10;2.80;;;;;;;15.56;92.15;97414.59;108408;1268;23335;-75
2022/08/07 00:48:47;;;;;;;3.80;2.80;;;;;;;15.57;91.89;97416.16;108407;1268;24287;-75
2022/08/07 00:51:21;;;;;;;2.70;2.50;;;;;;;15.55;91.61;97417.06;108407;1267;22620;-75
2022/08/07 00:53:52;;;;;;;2.80;2.50;;;;;;;15.46;91.54;97417.35;108317;1268;32257;-75
2022/08/07 00:56:24;;;;;;;3.10;2.60;;;;;;;15.38;91.58;97409.45;108443;1268;22599;-75
2022/08/07 00:58:56;;;;;;;3.20;2.60;;;;;;;15.31;91.69;97409.33;108510;1268;25024;-75
2022/08/07 01:01:28;;;;;;;7.40;2.70;;;;;;;15.24;91.83;97409.17;108527;1268;23319;-75
2022/08/07 01:03:59;;;;;;;5.20;2.30;;;;;;;15.16;91.92;97407.92;108476;1268;28826;-76
2022/08/07 01:06:31;;;;;;;3.50;2.80;;;;;;;15.11;92.10;97405.92;108415;1268;23746;-76
2022/08/07 01:09:04;;;;;;;3.10;2.60;;;;;;;15.09;92.37;97406.43;108548;1268;22685;-75
2022/08/07 01:11:35;;;;;;;5.40;2.80;;;;;;;15.09;92.57;97407.40;108554;1268;22554;-76
2022/08/07 01:14:07;;;;;;;4.30;3.10;;;;;;;15.09;92.81;97407.61;108504;1268;25368;-76
2022/08/07 01:16:38;;;;;;;2.70;2.40;;;;;;;15.14;93.11;97404.81;108543;1268;22562;-76
2022/08/07 01:19:10;;;;;;;6.10;3.10;;;;;;;15.25;93.30;97409.04;108543;1267;23820;-75
2022/08/07 01:21:42;;;;;;;4.90;2.80;;;;;;;15.33;93.17;97404.38;108435;1268;23013;-75
2022/08/07 01:24:14;;;;;;;4.50;3.00;;;;;;;15.27;92.83;97407.40;108456;1268;42075;-75
2022/08/07 01:26:45;;;;;;;5.90;3.40;;;;;;;15.19;92.82;97408.70;108547;1268;25236;-76
2022/08/07 01:29:17;;;;;;;3.90;3.00;;;;;;;15.12;93.00;97404.73;108558;1268;22649;-75
2022/08/07 01:31:48;;;;;;;4.20;2.70;;;;;;;15.09;93.38;97403.29;108444;1267;22615;-75
2022/08/07 01:34:19;;;;;;;3.10;2.80;;;;;;;15.10;93.64;97403.80;108467;1268;35011;-75
2022/08/07 01:36:54;;;;;;;4.30;3.00;;;;;;;15.16;93.75;97405.53;108526;1268;22925;-75
2022/08/07 01:39:25;;;;;;;3.60;2.90;;;;;;;15.21;93.83;97402.27;108449;1268;22666;-75
2022/08/07 01:41:58;;;;;;;4.20;2.90;;;;;;;15.33;93.95;97398.41;108392;1268;22467;-75
2022/08/07 01:44:29;;;;;;;7.90;3.40;;;;;;;15.41;93.80;97396.95;108348;1267;28317;-75
2022/08/07 01:47:00;;;;;;;6.00;3.80;;;;;;;15.45;93.76;97396.55;108410;1267;25140;-75
2022/08/07 01:49:34;;;;;;;6.30;3.40;;;;;;;15.52;93.68;97397.71;108547;1268;24122;-75
2022/08/07 01:52:09;;;;;;;6.00;3.80;;;;;;;15.59;93.66;97402.15;108444;1268;22625;-75
2022/08/07 01:54:43;;;;;;;4.40;3.10;;;;;;;15.65;93.49;97393.48;108486;1268;25620;-75
2022/08/07 01:57:19;;;;;;;5.90;3.40;;;;;;;15.68;93.32;97395.02;108439;1267;22549;-75
2022/08/07 01:59:56;;;;;;;3.80;2.80;;;;;;;15.71;93.12;97393.16;108531;1267;22520;-75
2022/08/07 02:02:36;;;;;;;5.30;3.00;;;;;;;15.73;93.06;97393.82;108497;1267;22869;-75
2022/08/07 02:05:12;;;;;;;3.90;2.90;;;;;;;15.77;92.98;97389.60;108293;1268;37275;-75
2022/08/07 02:07:49;;;;;;;3.70;2.90;;;;;;;15.80;92.97;97391.05;108525;1268;24372;-75
2022/08/07 02:10:24;;;;;;;4.10;3.20;;;;;;;15.79;92.80;97388.33;108621;1267;22562;-75
2022/08/07 02:12:59;;;;;;;5.30;3.20;;;;;;;15.72;92.64;97385.97;108548;1267;22620;-75
2022/08/07 02:15:32;;;;;;;5.50;2.70;;;;;;;15.70;92.73;97381.73;108463;1267;27391;-75
2022/08/07 02:18:05;;;;;;;5.10;3.10;;;;;;;15.71;92.98;97383.63;108520;1266;22535;-75
2022/08/07 02:20:36;;;;;;;6.30;3.20;;;;;;;15.74;92.91;97385.30;108587;1267;25239;-75
2022/08/07 02:23:10;;;;;;;4.30;3.10;;;;;;;15.80;92.93;97389.19;108469;1267;22538;-75
2022/08/07 02:25:43;;;;;;;5.30;3.10;;;;;;;15.82;92.84;97388.17;108510;1267;40966;-75
2022/08/07 02:28:17;;;;;;;4.30;3.00;;;;;;;15.73;92.47;97390.30;108449;1267;23842;-75
2022/08/07 02:30:50;;;;;;;5.50;3.20;;;;;;;15.69;92.58;97390.15;108512;1266;22531;-75
2022/08/07 02:33:25;;;;;;;4.50;2.90;;;;;;;15.73;92.86;97387.29;108536;1268;22617;-76
2022/08/07 02:35:57;;;;;;;4.50;2.90;;;;;;;15.79;92.85;97389.08;108368;1266;25382;-75
2022/08/07 02:38:31;;;;;;;4.70;3.10;;;;;;;15.82;92.74;97391.48;108428;1267;22559;-75
2022/08/07 02:41:03;;;;;;;4.30;3.10;;;;;;;15.83;92.70;97390.45;108397;1267;22613;-75
2022/08/07 02:43:38;;;;;;;6.90;3.20;;;;;;;15.83;92.58;97392.27;108560;1268;22641;-75
2022/08/07 02:46:11;;;;;;;4.60;3.30;;;;;;;15.80;92.56;97391.27;108401;1268;29931;-75
2022/08/07 02:48:42;;;;;;;4.40;3.00;;;;;;;15.76;92.60;97391.52;108507;1268;23980;-75
2022/08/07 02:51:18;;;;;;;3.50;2.90;;;;;;;15.77;92.73;97395.31;108505;1267;22531;-75
2022/08/07 02:53:53;;;;;;;5.70;3.30;;;;;;;15.81;92.80;97402.16;108340;1268;36262;-75
2022/08/07 02:56:26;;;;;;;4.80;2.90;;;;;;;15.82;92.76;97400.04;108499;1268;22668;-75
2022/08/07 02:59:00;;;;;;;4.70;3.50;;;;;;;15.83;92.69;97393.60;108397;1268;22562;-75
2022/08/07 03:01:33;;;;;;;4.00;3.20;;;;;;;15.87;92.66;97395.10;108428;1268;22549;-75
2022/08/07 03:04:08;;;;;;;3.40;3.10;;;;;;;15.91;92.65;97393.43;108437;1265;25927;-75
2022/08/07 03:06:39;;;;;;;6.10;3.20;;;;;;;15.93;92.54;97392.81;108480;1268;22731;-75
2022/08/07 03:09:12;;;;;;;3.50;3.00;;;;;;;15.94;92.56;97393.92;108404;1267;22603;-75
2022/08/07 03:11:44;;;;;;;5.70;3.20;;;;;;;15.92;92.41;97396.20;108489;1268;22541;-75
2022/08/07 03:14:19;;;;;;;4.30;3.20;;;;;;;15.92;92.41;97399.31;108408;1267;32006;-75
2022/08/07 03:16:50;;;;;;;4.60;3.00;;;;;;;15.92;92.53;97401.44;108436;1268;22541;-75
2022/08/07 03:19:21;;;;;;;4.60;3.20;;;;;;;15.95;92.60;97397.74;108499;1268;22464;-75
2022/08/07 03:21:53;;;;;;;3.60;3.30;;;;;;;15.95;92.47;97395.92;108401;1268;22535;-75
2022/08/07 03:24:24;;;;;;;4.30;3.10;;;;;;;15.97;92.43;97394.02;108329;1268;44766;-75
2022/08/07 03:26:59;;;;;;;4.20;3.40;;;;;;;15.98;92.44;97399.20;108481;1268;23758;-75
2022/08/07 03:29:33;;;;;;;3.60;3.20;;;;;;;15.96;92.30;97402.44;108512;1268;23706;-75
2022/08/07 03:32:08;;;;;;;5.00;3.40;;;;;;;15.94;92.34;97402.27;108402;1268;25342;-75
2022/08/07 03:34:41;;;;;;;5.40;3.60;;;;;;;15.94;92.38;97402.04;108420;1268;33136;-75
2022/08/07 03:37:14;;;;;;;4.30;3.50;;;;;;;15.90;92.29;97402.48;108445;1268;22559;-76
2022/08/07 03:39:46;;;;;;;6.40;3.80;;;;;;;15.73;92.32;97403.35;108552;1268;22658;-75
2022/08/07 03:42:21;;;;;;;8.60;4.20;;;;;;;15.64;92.74;97405.21;108421;1268;25273;-75
2022/08/07 03:44:53;;;;;;;8.60;4.20;;;;;;;15.64;93.19;97404.98;108412;1268;37675;-75
2022/08/07 03:47:24;;;;;;;6.10;4.20;;;;;;;15.56;93.44;97405.45;108510;1268;22566;-75
2022/08/07 03:49:56;;;;;;;4.90;4.30;;;;;;;15.47;93.73;97405.68;108417;1268;23722;-75
2022/08/07 03:52:32;;;;;;;7.10;4.40;;;;;;;15.45;94.25;97405.11;108447;1268;24218;-75
2022/08/07 03:55:04;;;;;;;6.70;4.70;;;;;;;15.36;94.54;97405.73;108256;1268;37848;-75
2022/08/07 03:57:37;;;;;;;4.90;4.40;;;;;;;15.32;94.96;97405.94;108487;1267;22546;-75
2022/08/07 04:00:12;;;;;;;7.90;4.30;;;;;;;15.30;95.13;97407.10;108444;1268;22904;-75
2022/08/07 04:02:44;;;;;;;7.20;4.60;;;;;;;15.34;95.35;97409.78;108477;1266;22609;-75
2022/08/07 04:05:19;;;;;;;5.50;4.60;;;;;;;15.36;95.43;97413.98;107440;1267;1352797;-75
2022/08/07 04:07:51;;;;;;;5.30;4.80;;;;;;;15.36;95.44;97412.96;108493;1267;25250;-75
2022/08/07 04:10:22;;;;;;;5.90;4.70;;;;;;;15.36;95.71;97414.94;108511;1268;22551;-75
2022/08/07 04:12:54;;;;;;;5.50;4.60;;;;;;;15.32;95.84;97412.04;108495;1268;22538;-75
2022/08/07 04:15:26;;;;;;;5.70;5.10;;;;;;;15.40;96.02;97407.55;108417;1267;30392;-75
2022/08/07 04:17:57;;;;;;;7.20;5.10;;;;;;;15.47;95.71;97406.96;108498;1268;23810;-75
2022/08/07 04:20:29;;;;;;;6.40;4.90;;;;;;;15.48;95.61;97402.08;108440;1267;23709;-75
2022/08/07 04:23:01;;;;;;;7.80;5.20;;;;;;;15.50;95.48;97405.98;108474;1267;24195;-75
2022/08/07 04:25:36;;;;;;;6.30;5.30;;;;;;;15.58;95.66;97402.38;108335;1268;27537;-75
2022/08/07 04:28:10;;;;;;;5.70;5.10;;;;;;;15.69;95.74;97403.34;108457;1267;24849;-75
2022/08/07 04:30:42;;;;;;;5.70;5.10;;;;;;;15.79;95.43;97401.91;108415;1268;22539;-75
2022/08/07 04:33:13;;;;;;;6.20;4.60;;;;;;;15.89;95.15;97408.05;108408;1267;25373;-75
2022/08/07 04:35:46;;;;;;;7.00;4.50;;;;;;;15.93;94.69;97411.85;108470;1268;32076;-75
2022/08/07 04:38:18;;;;;;;6.70;4.30;;;;;;;16.01;94.64;97416.52;108553;1268;25373;-75
2022/08/07 04:40:49;;;;;;;5.30;4.20;;;;;;;16.10;94.51;97416.27;108474;1267;22643;-75
2022/08/07 04:43:25;;;;;;;6.70;4.00;;;;;;;16.22;94.21;97420.83;108494;1267;22535;-75
2022/08/07 04:46:07;;;;;;;4.50;3.20;;;;;;;16.33;93.87;97428.70;108406;1268;36921;-74
2022/08/07 04:48:46;;;;;;;4.70;3.10;;;;;;;16.46;93.47;97429.77;108416;1268;23874;-75
2022/08/07 04:51:26;;;;;;;9.20;4.10;;;;;;;16.53;92.95;97432.04;108526;1267;23740;-75
2022/08/07 04:54:02;;;;;;;7.00;3.30;;;;;;;16.56;92.52;97433.67;108390;1268;27199;-75
2022/08/07 04:56:42;;;;;;;4.40;3.00;;;;;;;16.57;92.12;97437.84;108523;1266;22644;-75
2022/08/07 04:59:18;;;;;;;5.60;2.90;;;;;;;16.56;91.54;97441.17;108499;1267;22626;-75
2022/08/07 05:01:58;;;;;;;6.10;3.00;;;;;;;16.52;91.32;97443.30;108522;1268;23812;-75
2022/08/07 05:04:37;;;;;;;5.70;3.60;;;;;;;16.55;91.35;97442.83;108443;1268;29034;-76
2022/08/07 05:07:17;;;;;;;4.70;3.20;;;;;;;16.53;90.76;97445.36;108370;1268;25401;-75
2022/08/07 05:09:58;;;;;;;5.90;3.40;;;;;;;16.52;90.80;97444.06;108428;1267;22681;-75
2022/08/07 05:12:35;;;;;;;4.40;2.90;;;;;;;16.50;90.70;97442.86;108480;1268;22589;-75
2022/08/07 05:15:17;;;;;;;5.70;3.30;;;;;;;16.52;90.76;97445.01;108444;1267;26422;-75
2022/08/07 05:17:53;;;;;;;5.50;3.20;;;;;;;16.57;90.63;97450.48;108396;1265;22681;-75
2022/08/07 05:20:32;;;;;;;4.40;3.30;;;;;;;16.60;90.53;97448.49;108479;1266;22520;-75
2022/08/07 05:23:16;;;;;;;5.70;3.20;;;;;;;16.59;90.11;97448.88;108422;1267;22799;-75
2022/08/07 05:25:49;;;;;;;5.90;3.50;;;;;;;16.58;89.86;97448.30;108427;1267;33464;-75
2022/08/07 05:28:22;;;;;;;3.70;2.90;;;;;;;16.62;89.78;97451.90;108478;1265;22563;-75
2022/08/07 05:30:58;;;;;;;4.10;3.50;;;;;;;16.74;89.96;97452.73;108415;1268;22544;-75
2022/08/07 05:33:31;;;;;;;6.70;3.40;;;;;;;16.90;89.53;97454.06;108421;1267;22537;-75
2022/08/07 05:36:07;;;;;;;3.40;2.80;;;;;;;16.93;88.83;97451.83;108426;1267;34538;-75
2022/08/07 05:38:39;;;;;;;7.30;3.40;;;;;;;17.04;88.90;97450.27;108494;1265;24224;-75
2022/08/07 05:41:12;;;;;;;3.80;3.00;;;;;;;17.03;88.06;97446.69;108424;1267;23110;-75
2022/08/07 05:43:46;;;;;;;3.50;2.80;;;;;;;16.83;87.51;97452.87;108473;1267;24227;-75
2022/08/07 05:46:19;;;;;;;5.20;2.70;;;;;;;16.66;87.64;97452.36;108426;1268;22566;-75
2022/08/07 05:48:51;;;;;;;4.10;2.70;;;;;;;16.46;87.57;97448.38;108479;1268;22644;-75
2022/08/07 05:51:24;;;;;;;4.00;2.70;;;;;;;16.35;88.11;97445.22;108422;1267;25356;-75
2022/08/07 05:53:57;;;;;;;4.00;2.90;;;;;;;16.38;88.58;97444.48;108406;1267;25360;-75
2022/08/07 05:56:31;;;;;;;4.70;2.80;;;;;;;16.47;88.88;97444.90;108580;1267;22516;-75
2022/08/07 05:59:08;;;;;;;4.10;2.80;;;;;;;16.59;89.06;97448.30;108542;1266;22552;-75
2022/08/07 06:01:40;;;;;;;4.30;2.90;;;;;;;16.70;88.92;97448.67;108475;1267;22777;-75
2022/08/07 06:04:14;;;;;;;5.10;2.80;;;;;;;16.82;88.95;97455.30;108387;1267;24188;-75
2022/08/07 06:06:45;;;;;;;4.50;3.00;;;;;;;16.82;87.96;97449.46;108500;1267;22529;-75
2022/08/07 06:09:18;;;;;;;6.80;3.10;;;;;;;16.79;87.94;97451.41;108401;1267;24055;-75
2022/08/07 06:11:50;;;;;;;3.80;2.50;;;;;;;16.81;88.16;97455.80;108480;1267;24022;-75
2022/08/07 06:14:21;;;;;;;4.60;2.70;;;;;;;16.91;88.36;97453.56;108415;1267;29285;-75
2022/08/07 06:16:53;;;;;;;4.00;2.60;;;;;;;17.07;88.21;97451.65;108426;1267;22522;-75
2022/08/07 06:19:27;;;;;;;3.30;2.60;;;;;;;17.19;87.92;97453.95;108508;1267;23858;-76
2022/08/07 06:22:00;;;;;;;5.50;2.70;;;;;;;17.32;87.62;97450.33;108449;1267;23719;-76
2022/08/07 06:24:31;;;;;;;3.40;2.60;;;;;;;17.38;87.28;97449.77;108339;1266;76533;-76
2022/08/07 06:27:02;;;;;;;3.80;2.30;;;;;;;17.44;86.88;97448.23;108405;1267;22720;-77
2022/08/07 06:29:34;;;;;;;4.20;2.80;;;;;;;17.59;87.03;97445.66;108412;1268;22553;-76
2022/08/07 06:32:05;;;;;;;4.80;3.00;;;;;;;17.66;86.43;97447.86;108407;1268;23883;-77
2022/08/07 06:34:36;;;;;;;3.20;2.50;;;;;;;17.68;86.09;97451.05;108396;1267;33428;-76
2022/08/07 06:37:07;;;;;;;4.20;2.20;;;;;;;17.76;86.21;97447.70;108488;1267;22785;-76
2022/08/07 06:39:38;;;;;;;3.60;2.40;;;;;;;17.99;86.20;97450.16;108532;1268;24354;-77
2022/08/07 06:42:16;;;;;;;4.60;2.20;;;;;;;18.23;85.09;97447.70;108463;1268;25273;-76
2022/08/07 06:44:49;;;;;;;4.20;2.30;;;;;;;18.31;84.20;97449.71;108382;1267;40283;-76
2022/08/07 06:47:20;;;;;;;4.40;2.10;;;;;;;18.21;82.95;97450.90;108551;1267;23768;-77
2022/08/07 06:49:52;;;;;;;3.20;1.80;;;;;;;18.09;82.24;97453.36;108510;1267;22554;-76
2022/08/07 06:52:25;;;;;;;2.80;1.60;;;;;;;17.91;81.24;97456.33;108553;1267;22562;-77
2022/08/07 06:54:58;;;;;;;2.40;1.60;;;;;;;17.85;81.44;97456.71;108480;1267;34606;-77
2022/08/07 06:57:33;;;;;;;3.90;1.70;;;;;;;17.85;81.43;97457.85;108643;1267;22789;-77
2022/08/07 07:00:23;;;;;;;6.30;1.90;;;;;;;17.78;80.47;97459.20;108455;1268;22555;-77
2022/08/07 07:02:57;;;;;;;4.20;1.70;;;;;;;17.57;79.67;97458.73;108488;1267;22463;-77
2022/08/07 07:05:31;;;;;;;3.60;1.80;;;;;;;17.54;80.14;97456.21;108450;1268;32381;-77
2022/08/07 07:08:05;;;;;;;3.60;1.70;;;;;;;17.59;79.73;97455.52;108432;1268;22528;-77
2022/08/07 07:10:38;;;;;;;2.80;1.60;;;;;;;17.53;78.56;97454.09;108504;1268;24236;-77
2022/08/07 07:13:26;;;;;;;2.90;1.50;;;;;;;17.70;79.11;97452.45;108492;1268;24222;-77
2022/08/07 07:16:04;;;;;;;;;;;;;;;18.06;78.48;97443.67;108488;1268;34122;-78
2022/08/07 07:18:42;;;;;;;2.70;1.50;;;;;;;18.57;78.62;97441.46;108009;1267;91903;-78
2022/08/07 07:21:19;;;;;;;2.10;1.30;;;;;;;19.05;77.25;97444.89;108498;1267;25247;-77
2022/08/07 07:23:53;;;;;;;3.80;1.40;;;;;;;19.30;75.52;97443.06;108394;1268;24847;-77
2022/08/07 07:26:31;;;;;;;2.00;1.20;;;;;;;19.31;74.89;97448.66;108446;1267;22519;-76
2022/08/07 07:29:13;;;;;;;2.90;1.30;;;;;;;19.23;73.65;97448.36;108273;1268;85405;-77
2022/08/07 07:31:54;;;;;;;3.80;1.40;;;;;;;19.07;73.49;97449.45;108468;1268;22581;-75
2022/08/07 07:34:30;;;;;;;1.90;1.40;;;;;;;18.78;72.38;97448.98;108538;1267;22551;-75
2022/08/07 07:37:07;;;;;;;2.90;1.50;;;;;;;18.73;73.34;97448.11;108521;1268;23588;-75
2022/08/07 07:39:41;;;;;;;4.20;1.30;;;;;;;18.74;73.20;97449.55;108508;1267;29681;-75
2022/08/07 07:42:16;;;;;;;3.10;1.60;;;;;;;18.73;72.73;97449.98;108581;1268;23505;-75
2022/08/07 07:44:53;;;;;;;2.90;1.20;;;;;;;18.71;73.03;97448.85;108476;1268;22545;-75
2022/08/07 07:47:27;;;;;;;2.70;1.40;;;;;;;18.75;73.27;97454.98;108483;1268;23903;-75
2022/08/07 07:50:00;;;;;;;3.20;1.60;;;;;;;18.79;72.86;97453.63;108368;1268;26483;-75
2022/08/07 07:52:32;;;;;;;2.30;1.20;;;;;;;18.74;71.90;97456.93;108551;1268;24031;-76
2022/08/07 07:55:06;;;;;;;1.60;1.10;;;;;;;18.68;72.04;97456.86;108515;1266;22543;-75
2022/08/07 07:57:39;;;;;;;5.30;1.60;;;;;;;18.65;71.36;97460.63;108545;1268;25238;-75
2022/08/07 08:00:16;;;;;;;5.30;1.70;;;;;;;18.60;71.82;97460.29;108542;1267;22522;-75
2022/08/07 08:02:51;;;;;;;2.20;1.10;;;;;;;18.69;72.25;97460.02;108571;1267;22539;-75
2022/08/07 08:05:24;;;;;;;3.40;1.30;;;;;;;18.85;72.01;97461.05;108497;1268;22512;-75
2022/08/07 08:07:58;;;;;;;3.70;1.40;;;;;;;19.01;71.43;97461.83;108414;1267;39668;-75
2022/08/07 08:10:31;;;;;;;3.80;1.80;;;;;;;19.38;71.65;97464.03;108504;1267;22571;-75
2022/08/07 08:13:04;;;;;;;3.80;1.40;;;;;;;19.66;70.97;97458.68;108444;1268;22564;-75
2022/08/07 08:15:40;;;;;;;2.10;1.20;;;;;;;19.93;70.46;97457.98;108509;1268;24227;-75
2022/08/07 08:18:12;;;;;;;2.80;1.10;;;;;;;20.14;70.21;97452.36;108360;1267;41537;-75
2022/08/07 08:20:45;;;;;;;3.10;1.30;;;;;;;20.33;68.86;97451.00;108484;1268;22618;-75
2022/08/07 08:29:01;;;;;;;5.80;1.00;;;;;;;20.60;63.59;97460.00;108416;1268;49779;-76
2022/08/07 08:31:35;;;;;;;3.60;1.50;;;;;;;20.04;63.24;97459.56;108476;1268;24199;-75
2022/08/07 08:34:10;;;;;;;1.80;0.90;;;;;;;19.80;63.98;97460.55;108462;1268;22637;-75
2022/08/07 08:36:43;;;;;;;1.80;1.20;;;;;;;20.00;65.70;97459.98;108510;1267;23231;-76
2022/08/07 08:39:14;;;;;;;1.70;1.10;;;;;;;20.33;65.37;97451.95;108421;1267;28484;-75
2022/08/07 08:41:51;;;;;;;3.10;1.50;;;;;;;20.70;64.67;97461.88;108356;1268;24986;-75
2022/08/07 08:44:30;;;;;;;4.10;1.30;;;;;;;20.92;64.09;97464.61;108358;1268;22545;-75
2022/08/07 08:47:10;;;;;;;2.10;1.20;;;;;;;20.82;62.69;97463.83;108402;1268;22552;-75
2022/08/07 08:49:44;;;;;;;;;;;;;;;20.72;62.27;97461.81;108391;1268;24325;-75
2022/08/07 08:52:24;;;;;;;2.30;1.20;;;;;;;20.59;62.40;97461.67;108487;1267;22689;-75
2022/08/07 08:54:58;;;;;;;;;;;;;;;20.59;61.79;97459.23;108418;1268;22923;-76
2022/08/07 08:57:37;;;;;;;2.70;1.50;;;;;;;20.33;61.82;97461.80;108473;1268;22558;-77
2022/08/07 09:00:12;;;;;;;3.90;1.60;;;;;;;20.53;62.01;97465.52;108446;1267;22557;-77
2022/08/07 09:02:52;;;;;;;2.50;1.60;;;;;;;20.68;62.51;97469.21;108451;1268;22528;-77
2022/08/07 09:05:34;;;;;;;3.20;1.40;;;;;;;20.90;61.82;97467.79;108420;1267;22561;-76
2022/08/07 09:08:19;;;;;;;4.90;2.10;;;;;;;20.88;62.00;97472.56;108404;1268;26236;-79
2022/08/07 09:10:57;;;;;;;4.10;2.10;;;;;;;21.05;62.49;97476.10;108529;1267;22552;-78
2022/08/07 09:13:37;;;;;;;4.50;2.60;;;;;;;21.29;61.89;97474.66;108536;1268;22546;-79
2022/08/07 09:16:18;;;;;;;3.40;2.30;;;;;;;21.04;60.49;97471.81;108591;1267;22637;-78
2022/08/07 09:19:22;;;;;;;3.80;2.20;;;;;;;20.96;61.33;97473.79;108526;1267;32055;-80
2022/08/07 09:22:06;;;;;;;4.20;2.70;;;;;;;21.24;61.79;97471.55;108281;1268;23729;-80
2022/08/07 09:24:48;;;;;;;9.30;2.80;;;;;;;21.58;61.84;97469.15;108651;1267;23900;-81
2022/08/07 09:27:29;;;;;;;3.50;2.20;;;;;;;22.05;60.41;97464.19;108651;1266;22700;-80
2022/08/07 09:30:06;;;;;;;3.20;1.90;;;;;;;21.97;57.15;97465.58;108524;1268;26212;-81
2022/08/07 09:32:56;;;;;;;3.60;2.10;;;;;;;21.68;58.07;97463.14;108612;1267;22556;-81
2022/08/07 09:35:40;;;;;;;3.00;1.70;;;;;;;21.90;59.23;97463.60;108758;1267;22522;-81
2022/08/07 09:38:20;;;;;;;2.50;1.50;;;;;;;22.25;59.23;97461.34;108644;1268;33662;-82
2022/08/07 09:41:06;;;;;;;3.50;1.60;;;;;;;22.33;57.38;97461.93;108613;1268;25651;-82
2022/08/07 09:43:53;;;;;;;2.60;0.90;;;;;;;22.06;56.17;97459.77;108522;1267;22582;-81
2022/08/07 09:46:36;;;;;;;4.00;1.50;;;;;;;21.69;54.73;97453.06;108569;1267;22458;-80
2022/08/07 09:49:24;;;;;;;5.40;1.40;;;;;;;21.50;55.53;97453.59;108477;1267;41681;-78
2022/08/07 09:52:15;;;;;;;2.50;1.10;;;;;;;21.27;54.75;97457.50;108624;1267;22592;-77
2022/08/07 09:54:53;;;;;;;2.00;1.10;;;;;;;20.98;54.47;97452.91;108527;1268;22547;-77
2022/08/07 09:58:09;;;;;;;2.00;1.10;;;;;;;20.88;54.44;97446.36;108610;1267;23830;-80
2022/08/07 10:00:58;;;;;;;2.20;1.10;;;;;;;20.41;54.58;97437.52;108540;1267;22555;-80
2022/08/07 10:03:59;;;;;;;2.50;1.00;;;;;;;20.55;57.34;97434.58;108591;1267;23270;-80
2022/08/07 10:07:09;;;;;;;2.90;1.10;;;;;;;20.91;55.57;97439.95;108707;1268;24176;-80
2022/08/07 10:10:18;;;;;;;1.80;1.00;;;;;;;20.85;55.87;97437.58;108621;1267;35623;-80
2022/08/07 10:13:12;;;;;;;2.60;1.10;;;;;;;20.97;55.64;97436.81;108638;1267;22662;-80
2022/08/07 10:15:58;;;;;;;2.70;1.00;;;;;;;20.60;54.90;97432.63;108628;1267;23351;-77
2022/08/07 10:19:05;;;;;;;2.50;1.20;;;;;;;20.34;55.16;97428.27;108526;1267;28230;-79
2022/08/07 10:21:52;;;;;;;2.70;1.10;;;;;;;20.00;55.41;97425.20;108060;1273;25361;-77
2022/08/07 10:24:44;;;;;;;1.50;1.20;;;;;;;20.07;56.34;97424.38;108564;1265;22555;-79
2022/08/07 10:27:36;;;;;;;1.70;1.00;;;;;;;20.07;56.11;97425.52;108644;1267;24967;-78
2022/08/07 10:30:13;;;;;;;3.00;1.30;;;;;;;20.17;56.32;97429.59;108701;1268;22686;-80
2022/08/07 10:33:21;;;;;;;2.30;1.20;;;;;;;20.12;55.64;97424.20;108645;1267;22555;-80
2022/08/07 10:36:04;;;;;;;1.60;1.50;;;;;;;19.90;56.24;97421.42;108673;1267;22545;-76
2022/08/07 10:38:49;;;;;;;2.70;1.20;;;;;;;19.99;56.30;97419.95;108569;1267;41604;-80
2022/08/07 10:41:31;;;;;;;4.00;1.50;;;;;;;19.92;56.57;97416.13;108580;1267;23886;-80
2022/08/07 10:44:12;;;;;;;3.00;1.40;;;;;;;20.19;57.24;97413.36;108699;1267;22515;-79
2022/08/07 10:46:52;;;;;;;3.30;1.30;;;;;;;20.54;57.64;97414.52;108755;1267;22558;-79
2022/08/07 10:49:35;;;;;;;2.20;1.40;;;;;;;20.78;56.65;97416.70;108695;1267;23964;-79
2022/08/07 10:52:09;;;;;;;2.10;1.30;;;;;;;20.83;56.87;97412.69;108673;1268;22525;-79
2022/08/07 10:54:45;;;;;;;4.60;1.50;;;;;;;20.93;56.41;97410.28;108622;1268;22572;-81
2022/08/07 10:57:32;;;;;;;2.30;1.30;;;;;;;20.87;56.19;97408.23;108599;1268;22555;-81
2022/08/07 11:00:09;;;;;;;2.60;1.40;;;;;;;20.67;55.13;97407.97;108576;1267;24599;-81
2022/08/07 11:02:50;;;;;;;2.60;1.20;;;;;;;20.59;55.49;97404.42;108714;1267;22537;-81
2022/08/07 11:05:26;;;;;;;;;;;;;;;20.71;55.48;97408.97;108653;1267;22515;-80
2022/08/07 11:08:09;;;;;;;3.60;1.20;;;;;;;20.65;55.78;97409.11;108572;1267;41900;-82
2022/08/07 11:10:47;;;;;;;2.80;1.10;;;;;;;20.74;55.10;97404.48;108627;1267;22565;-81
2022/08/07 11:13:24;;;;;;;3.00;1.60;;;;;;;20.66;54.71;97402.69;108714;1268;22549;-82
2022/08/07 11:16:02;;;;;;;2.70;1.40;;;;;;;20.56;55.96;97397.69;108689;1267;22655;-82
2022/08/07 11:18:38;;;;;;;2.80;1.40;;;;;;;20.60;56.26;97395.55;108537;1267;25485;-76
2022/08/07 11:21:17;;;;;;;2.30;1.40;;;;;;;20.59;55.87;97393.61;108611;1267;24274;-76
2022/08/07 11:23:58;;;;;;;2.20;1.30;;;;;;;20.19;54.70;97393.59;108657;1268;22552;-76
2022/08/07 11:26:39;;;;;;;2.50;1.00;;;;;;;20.02;55.45;97389.59;108633;1268;22519;-75
2022/08/07 11:29:17;;;;;;;2.80;1.20;;;;;;;19.94;55.72;97387.98;108489;1267;25699;-75
2022/08/07 11:31:55;;;;;;;1.70;1.20;;;;;;;20.00;55.83;97388.38;108779;1267;22592;-75
2022/08/07 11:34:38;;;;;;;3.50;1.20;;;;;;;19.88;55.31;97389.86;108510;1268;22551;-76
2022/08/07 11:37:23;;;;;;;1.60;1.20;;;;;;;19.66;54.46;97384.31;108577;1267;22531;-76
2022/08/07 11:40:03;;;;;;;2.90;1.20;;;;;;;19.55;55.04;97377.59;108562;1267;25570;-75
2022/08/07 11:42:53;;;;;;;3.40;1.30;;;;;;;19.66;55.70;97378.55;108443;1268;23709;-75
2022/08/07 11:45:34;;;;;;;2.10;1.10;;;;;;;19.86;54.33;97377.95;108663;1268;24334;-76
2022/08/07 11:48:42;;;;;;;2.00;1.20;;;;;;;19.79;54.52;97375.34;108524;1268;27000;-75
2022/08/07 11:51:49;;;;;;;1.80;1.00;;;;;;;19.73;54.15;97378.87;108614;1266;22542;-76
2022/08/07 11:54:37;;;;;;;2.60;1.20;;;;;;;19.87;55.24;97371.54;108557;1268;24994;-76
2022/08/07 11:57:21;;;;;;;2.30;1.20;;;;;;;20.09;55.77;97371.33;108656;1266;23058;-76
2022/08/07 12:00:05;;;;;;;2.30;1.20;;;;;;;20.23;56.34;97371.60;108557;1267;26752;-76
2022/08/07 12:03:10;;;;;;;3.40;1.50;;;;;;;20.41;56.64;97370.18;108648;1267;22552;-76
2022/08/07 12:05:58;;;;;;;3.90;1.40;;;;;;;20.53;55.78;97371.39;108418;1268;23389;-76
2022/08/07 12:08:41;;;;;;;3.60;1.20;;;;;;;20.59;55.45;97372.77;108552;1267;24870;-75
2022/08/07 12:11:22;;;;;;;2.50;1.10;;;;;;;20.71;55.27;97372.79;108909;1266;22530;-76
2022/08/07 12:14:07;;;;;;;5.60;1.10;;;;;;;20.88;55.25;97372.30;108693;1267;22556;-74
2022/08/07 12:16:47;;;;;;;2.80;1.10;;;;;;;21.07;55.72;97364.46;108747;1268;22683;-75